createdAt,value
2023-02-14T00:00:01.052Z,1031.98
2023-02-14T00:01:01.223Z,1032.00
2023-02-14T00:02:01.023Z,1031.98
2023-02-14T00:03:01.031Z,1031.99
2023-02-14T00:04:01.030Z,1031.95
2023-02-14T00:05:00.987Z,1032.00
2023-02-14T00:06:00.957Z,1032.01
2023-02-14T00:07:00.953Z,1032.00
2023-02-14T00:08:00.951Z,1032.05
2023-02-14T00:09:00.930Z,1032.01
2023-02-14T00:10:00.913Z,1032.04
2023-02-14T00:11:01.110Z,1032.04
2023-02-14T00:12:00.872Z,1032.01
2023-02-14T00:13:00.873Z,1031.98
2023-02-14T00:14:00.858Z,1031.99
2023-02-14T00:15:00.850Z,1031.96
2023-02-14T00:16:00.859Z,1032.01
2023-02-14T00:17:00.815Z,1031.98
2023-02-14T00:18:00.804Z,1031.95
2023-02-14T00:19:00.801Z,1031.95
2023-02-14T00:20:00.767Z,1031.95
2023-02-14T00:21:00.905Z,1031.96
2023-02-14T00:22:00.744Z,1031.92
2023-02-14T00:23:00.782Z,1031.92
2023-02-14T00:24:00.714Z,1031.91
2023-02-14T00:25:00.718Z,1031.96
2023-02-14T00:26:00.695Z,1031.93
2023-02-14T00:27:00.684Z,1031.92
2023-02-14T00:28:00.685Z,1031.90
2023-02-14T00:29:00.657Z,1031.90
2023-02-14T00:30:00.664Z,1031.90
2023-02-14T00:31:01.071Z,1031.96
2023-02-14T00:32:00.678Z,1031.91
2023-02-14T00:33:00.619Z,1031.96
2023-02-14T00:34:00.586Z,1031.98
2023-02-14T00:35:00.577Z,1031.98
2023-02-14T00:36:00.555Z,1031.96
2023-02-14T00:37:00.569Z,1031.99
2023-02-14T00:38:00.545Z,1031.94
2023-02-14T00:39:00.523Z,1031.93
2023-02-14T00:40:00.516Z,1031.94
2023-02-14T00:41:00.725Z,1031.96
2023-02-14T00:42:00.487Z,1032.00
2023-02-14T00:43:00.491Z,1031.96
2023-02-14T00:44:00.455Z,1031.98
2023-02-14T00:45:00.472Z,1031.97
2023-02-14T00:46:00.471Z,1031.93
2023-02-14T00:47:00.416Z,1031.97
2023-02-14T00:48:00.421Z,1031.97
2023-02-14T00:49:00.386Z,1031.97
2023-02-14T00:50:00.376Z,1031.94
2023-02-14T00:51:00.767Z,1031.93
2023-02-14T00:52:00.345Z,1031.93
2023-02-14T00:53:00.349Z,1031.96
2023-02-14T00:54:00.317Z,1031.94
2023-02-14T00:55:00.319Z,1031.92
2023-02-14T00:56:00.297Z,1031.95
2023-02-14T00:57:00.305Z,1031.91
2023-02-14T00:58:00.280Z,1031.95
2023-02-14T00:59:00.255Z,1031.94
2023-02-14T01:00:00.245Z,1031.97
2023-02-14T01:01:00.532Z,1031.96
2023-02-14T01:02:00.218Z,1031.96
2023-02-14T01:03:00.208Z,1031.98
2023-02-14T01:04:00.210Z,1032.00
2023-02-14T01:05:00.202Z,1031.97
2023-02-14T01:06:00.168Z,1031.99
2023-02-14T01:07:00.165Z,1031.99
2023-02-14T01:08:00.142Z,1032.02
2023-02-14T01:09:00.134Z,1032.03
2023-02-14T01:10:00.157Z,1032.06
2023-02-14T01:11:00.424Z,1032.04
2023-02-14T01:12:00.127Z,1032.05
2023-02-14T01:13:00.092Z,1032.08
2023-02-14T01:14:00.070Z,1032.09
2023-02-14T01:15:00.055Z,1032.08
2023-02-14T01:16:00.031Z,1032.07
2023-02-14T01:17:00.017Z,1032.07
2023-02-14T01:18:00.059Z,1032.06
2023-02-14T01:19:00.020Z,1032.06
2023-02-14T01:19:59.978Z,1032.09
2023-02-14T01:21:00.231Z,1032.08
2023-02-14T01:21:59.948Z,1032.07
2023-02-14T01:22:59.939Z,1032.03
2023-02-14T01:23:59.969Z,1032.08
2023-02-14T01:24:59.917Z,1032.01
2023-02-14T01:25:59.898Z,1032.03
2023-02-14T01:26:59.901Z,1032.03
2023-02-14T01:27:59.867Z,1031.99
2023-02-14T01:28:59.882Z,1032.05
2023-02-14T01:29:59.865Z,1032.07
2023-02-14T01:31:00.170Z,1032.04
2023-02-14T01:31:59.861Z,1032.07
2023-02-14T01:32:59.813Z,1032.03
2023-02-14T01:33:59.831Z,1031.96
2023-02-14T01:34:59.788Z,1032.00
2023-02-14T01:35:59.794Z,1031.98
2023-02-14T01:36:59.759Z,1032.01
2023-02-14T01:37:59.749Z,1031.99
2023-02-14T01:38:59.742Z,1032.03
2023-02-14T01:39:59.725Z,1031.99
2023-02-14T01:40:59.975Z,1032.02
2023-02-14T01:41:59.693Z,1031.95
2023-02-14T01:42:59.671Z,1031.89
2023-02-14T01:43:59.681Z,1031.91
2023-02-14T01:44:59.671Z,1031.93
2023-02-14T01:45:59.673Z,1031.85
2023-02-14T01:46:59.622Z,1031.89
2023-02-14T01:47:59.626Z,1031.89
2023-02-14T01:48:59.612Z,1031.87
2023-02-14T01:49:59.588Z,1031.83
2023-02-14T01:50:59.917Z,1031.89
2023-02-14T01:51:59.565Z,1031.87
2023-02-14T01:52:59.549Z,1031.94
2023-02-14T01:53:59.579Z,1031.86
2023-02-14T01:55:01.364Z,1031.87
2023-02-14T01:56:06.521Z,1031.82
2023-02-14T01:56:59.527Z,1031.88
2023-02-14T01:57:59.507Z,1031.77
2023-02-14T01:58:59.486Z,1031.81
2023-02-14T01:59:59.468Z,1031.84
2023-02-14T02:00:59.790Z,1031.88
2023-02-14T02:01:59.460Z,1031.87
2023-02-14T02:02:59.410Z,1031.85
2023-02-14T02:03:59.417Z,1031.85
2023-02-14T02:04:59.388Z,1031.84
2023-02-14T02:05:59.385Z,1031.83
2023-02-14T02:06:59.374Z,1031.79
2023-02-14T02:07:59.346Z,1031.80
2023-02-14T02:08:59.355Z,1031.78
2023-02-14T02:09:59.332Z,1031.76
2023-02-14T02:10:59.571Z,1031.77
2023-02-14T02:11:59.346Z,1031.76
2023-02-14T02:12:59.275Z,1031.77
2023-02-14T02:13:59.301Z,1031.76
2023-02-14T02:14:59.312Z,1031.73
2023-02-14T02:15:59.237Z,1031.74
2023-02-14T02:16:59.257Z,1031.71
2023-02-14T02:17:59.217Z,1031.69
2023-02-14T02:18:59.244Z,1031.70
2023-02-14T02:19:59.185Z,1031.68
2023-02-14T02:20:59.453Z,1031.67
2023-02-14T02:21:59.165Z,1031.69
2023-02-14T02:22:59.174Z,1031.70
2023-02-14T02:23:59.179Z,1031.69
2023-02-14T02:24:59.129Z,1031.70
2023-02-14T02:25:59.123Z,1031.69
2023-02-14T02:26:59.119Z,1031.67
2023-02-14T02:27:59.099Z,1031.65
2023-02-14T02:28:59.076Z,1031.71
2023-02-14T02:29:59.099Z,1031.74
2023-02-14T02:30:59.534Z,1031.70
2023-02-14T02:31:59.183Z,1031.72
2023-02-14T02:32:59.037Z,1031.71
2023-02-14T02:33:59.025Z,1031.71
2023-02-14T02:34:59.066Z,1031.72
2023-02-14T02:35:58.984Z,1031.73
2023-02-14T02:36:58.963Z,1031.67
2023-02-14T02:37:58.955Z,1031.70
2023-02-14T02:38:58.936Z,1031.67
2023-02-14T02:39:58.950Z,1031.70
2023-02-14T02:40:59.248Z,1031.69
2023-02-14T02:41:58.906Z,1031.66
2023-02-14T02:42:58.896Z,1031.62
2023-02-14T02:43:58.890Z,1031.62
2023-02-14T02:44:58.907Z,1031.61
2023-02-14T02:45:58.892Z,1031.63
2023-02-14T02:46:58.825Z,1031.59
2023-02-14T02:47:58.828Z,1031.59
2023-02-14T02:48:58.816Z,1031.57
2023-02-14T02:49:58.814Z,1031.60
2023-02-14T02:50:59.043Z,1031.61
2023-02-14T02:51:58.772Z,1031.56
2023-02-14T02:52:58.772Z,1031.55
2023-02-14T02:53:58.760Z,1031.58
2023-02-14T02:54:58.737Z,1031.59
2023-02-14T02:55:58.714Z,1031.55
2023-02-14T02:56:58.706Z,1031.59
2023-02-14T02:57:58.686Z,1031.56
2023-02-14T02:58:58.676Z,1031.52
2023-02-14T02:59:58.677Z,1031.56
2023-02-14T03:00:58.932Z,1031.54
2023-02-14T03:01:58.647Z,1031.50
2023-02-14T03:02:58.625Z,1031.49
2023-02-14T03:03:58.620Z,1031.51
2023-02-14T03:04:58.626Z,1031.49
2023-02-14T03:05:58.590Z,1031.49
2023-02-14T03:06:58.579Z,1031.52
2023-02-14T03:07:58.561Z,1031.55
2023-02-14T03:08:58.546Z,1031.51
2023-02-14T03:09:58.552Z,1031.52
2023-02-14T03:10:58.863Z,1031.54
2023-02-14T03:11:58.516Z,1031.58
2023-02-14T03:12:58.486Z,1031.54
2023-02-14T03:13:58.483Z,1031.59
2023-02-14T03:14:58.491Z,1031.56
2023-02-14T03:15:58.517Z,1031.57
2023-02-14T03:16:58.437Z,1031.60
2023-02-14T03:17:58.427Z,1031.58
2023-02-14T03:18:58.414Z,1031.51
2023-02-14T03:19:58.420Z,1031.59
2023-02-14T03:20:58.738Z,1031.55
2023-02-14T03:21:58.386Z,1031.59
2023-02-14T03:22:58.390Z,1031.56
2023-02-14T03:23:58.386Z,1031.61
2023-02-14T03:24:58.338Z,1031.59
2023-02-14T03:25:58.320Z,1031.61
2023-02-14T03:26:58.298Z,1031.59
2023-02-14T03:27:58.289Z,1031.62
2023-02-14T03:28:58.302Z,1031.62
2023-02-14T03:29:58.361Z,1031.61
2023-02-14T03:30:58.844Z,1031.62
2023-02-14T03:31:58.370Z,1031.60
2023-02-14T03:32:58.218Z,1031.64
2023-02-14T03:33:58.288Z,1031.63
2023-02-14T03:34:58.208Z,1031.61
2023-02-14T03:35:58.205Z,1031.65
2023-02-14T03:36:58.206Z,1031.67
2023-02-14T03:37:58.185Z,1031.63
2023-02-14T03:38:58.140Z,1031.64
2023-02-14T03:39:58.156Z,1031.68
2023-02-14T03:40:58.582Z,1031.65
2023-02-14T03:41:58.117Z,1031.65
2023-02-14T03:42:58.108Z,1031.64
2023-02-14T03:43:58.087Z,1031.69
2023-02-14T03:44:58.103Z,1031.62
2023-02-14T03:45:58.138Z,1031.64
2023-02-14T03:46:58.242Z,1031.66
2023-02-14T03:47:58.043Z,1031.69
2023-02-14T03:48:58.034Z,1031.66
2023-02-14T03:49:58.036Z,1031.65
2023-02-14T03:50:58.300Z,1031.63
2023-02-14T03:51:57.982Z,1031.66
2023-02-14T03:52:57.960Z,1031.66
2023-02-14T03:53:57.962Z,1031.70
2023-02-14T03:54:57.936Z,1031.66
2023-02-14T03:55:57.941Z,1031.70
2023-02-14T03:56:57.911Z,1031.66
2023-02-14T03:57:57.900Z,1031.63
2023-02-14T03:58:57.885Z,1031.65
2023-02-14T03:59:57.880Z,1031.59
2023-02-14T04:00:58.263Z,1031.61
2023-02-14T04:01:57.910Z,1031.61
2023-02-14T04:02:57.823Z,1031.63
2023-02-14T04:03:57.862Z,1031.64
2023-02-14T04:04:57.818Z,1031.58
2023-02-14T04:05:57.812Z,1031.63
2023-02-14T04:06:57.772Z,1031.61
2023-02-14T04:07:57.777Z,1031.64
2023-02-14T04:08:57.762Z,1031.59
2023-02-14T04:09:57.755Z,1031.58
2023-02-14T04:10:58.109Z,1031.63
2023-02-14T04:11:57.730Z,1031.61
2023-02-14T04:12:57.723Z,1031.58
2023-02-14T04:13:57.706Z,1031.60
2023-02-14T04:14:57.664Z,1031.62
2023-02-14T04:15:57.718Z,1031.60
2023-02-14T04:16:57.663Z,1031.64
2023-02-14T04:17:57.630Z,1031.59
2023-02-14T04:18:57.610Z,1031.64
2023-02-14T04:19:57.613Z,1031.64
2023-02-14T04:20:57.785Z,1031.58
2023-02-14T04:21:57.595Z,1031.59
2023-02-14T04:22:57.568Z,1031.63
2023-02-14T04:23:57.573Z,1031.61
2023-02-14T04:24:57.557Z,1031.66
2023-02-14T04:25:57.534Z,1031.62
2023-02-14T04:26:57.509Z,1031.60
2023-02-14T04:27:57.522Z,1031.62
2023-02-14T04:28:57.490Z,1031.57
2023-02-14T04:29:57.520Z,1031.58
2023-02-14T04:30:57.818Z,1031.61
2023-02-14T04:31:57.541Z,1031.57
2023-02-14T04:32:57.443Z,1031.60
2023-02-14T04:33:57.424Z,1031.55
2023-02-14T04:34:57.413Z,1031.58
2023-02-14T04:35:57.436Z,1031.60
2023-02-14T04:36:57.393Z,1031.60
2023-02-14T04:37:57.394Z,1031.58
2023-02-14T04:38:57.360Z,1031.58
2023-02-14T04:39:57.366Z,1031.61
2023-02-14T04:40:57.538Z,1031.50
2023-02-14T04:41:57.370Z,1031.50
2023-02-14T04:42:57.323Z,1031.54
2023-02-14T04:43:57.298Z,1031.53
2023-02-14T04:44:57.279Z,1031.50
2023-02-14T04:45:57.278Z,1031.49
2023-02-14T04:46:57.271Z,1031.51
2023-02-14T04:47:57.251Z,1031.47
2023-02-14T04:48:57.229Z,1031.44
2023-02-14T04:49:57.221Z,1031.47
2023-02-14T04:50:57.348Z,1031.44
2023-02-14T04:51:57.212Z,1031.45
2023-02-14T04:52:57.186Z,1031.37
2023-02-14T04:53:57.163Z,1031.44
2023-02-14T04:54:57.145Z,1031.38
2023-02-14T04:55:57.133Z,1031.33
2023-02-14T04:56:57.149Z,1031.37
2023-02-14T04:57:57.110Z,1031.36
2023-02-14T04:58:57.094Z,1031.37
2023-02-14T04:59:57.082Z,1031.35
2023-02-14T05:00:57.183Z,1031.35
2023-02-14T05:01:57.113Z,1031.33
2023-02-14T05:02:57.043Z,1031.37
2023-02-14T05:03:57.039Z,1031.34
2023-02-14T05:04:57.013Z,1031.36
2023-02-14T05:05:57.014Z,1031.31
2023-02-14T05:06:57.005Z,1031.36
2023-02-14T05:07:56.982Z,1031.33
2023-02-14T05:08:56.958Z,1031.34
2023-02-14T05:09:56.971Z,1031.32
2023-02-14T05:10:57.023Z,1031.30
2023-02-14T05:11:56.942Z,1031.27
2023-02-14T05:12:56.913Z,1031.32
2023-02-14T05:13:56.913Z,1031.30
2023-02-14T05:14:56.895Z,1031.32
2023-02-14T05:15:56.917Z,1031.33
2023-02-14T05:16:56.892Z,1031.28
2023-02-14T05:17:56.851Z,1031.25
2023-02-14T05:18:56.854Z,1031.23
2023-02-14T05:19:56.822Z,1031.25
2023-02-14T05:20:57.038Z,1031.22
2023-02-14T05:21:56.805Z,1031.18
2023-02-14T05:22:56.798Z,1031.16
2023-02-14T05:23:56.773Z,1031.14
2023-02-14T05:24:56.779Z,1031.19
2023-02-14T05:25:56.741Z,1031.12
2023-02-14T05:26:56.731Z,1031.16
2023-02-14T05:27:56.712Z,1031.15
2023-02-14T05:28:56.700Z,1031.14
2023-02-14T05:29:56.778Z,1031.14
2023-02-14T05:30:56.761Z,1031.12
2023-02-14T05:31:56.765Z,1031.14
2023-02-14T05:32:56.663Z,1031.14
2023-02-14T05:33:56.665Z,1031.16
2023-02-14T05:34:56.631Z,1031.11
2023-02-14T05:35:56.602Z,1031.12
2023-02-14T05:36:56.601Z,1031.10
2023-02-14T05:37:56.609Z,1031.14
2023-02-14T05:38:56.565Z,1031.13
2023-02-14T05:39:56.553Z,1031.09
2023-02-14T05:40:56.569Z,1031.15
2023-02-14T05:41:58.489Z,1031.12
2023-02-14T05:42:56.510Z,1031.17
2023-02-14T05:43:56.516Z,1031.13
2023-02-14T05:44:56.481Z,1031.13
2023-02-14T05:45:56.547Z,1031.15
2023-02-14T05:46:56.466Z,1031.11
2023-02-14T05:47:56.442Z,1031.12
2023-02-14T05:48:56.464Z,1031.10
2023-02-14T05:49:56.430Z,1031.12
2023-02-14T05:50:56.415Z,1031.08
2023-02-14T05:51:56.417Z,1031.14
2023-02-14T05:52:56.385Z,1031.10
2023-02-14T05:53:56.368Z,1031.10
2023-02-14T05:54:56.362Z,1031.11
2023-02-14T05:55:56.342Z,1031.08
2023-02-14T05:56:56.363Z,1031.11
2023-02-14T05:57:56.314Z,1031.13
2023-02-14T05:58:56.296Z,1031.12
2023-02-14T05:59:56.320Z,1031.10
2023-02-14T06:00:56.310Z,1031.16
2023-02-14T06:01:56.294Z,1031.14
2023-02-14T06:02:56.306Z,1031.13
2023-02-14T06:03:56.239Z,1031.18
2023-02-14T06:04:56.238Z,1031.18
2023-02-14T06:05:56.248Z,1031.20
2023-02-14T06:06:56.200Z,1031.22
2023-02-14T06:07:56.265Z,1031.22
2023-02-14T06:08:56.190Z,1031.18
2023-02-14T06:09:56.181Z,1031.20
2023-02-14T06:10:56.163Z,1031.21
2023-02-14T06:11:56.143Z,1031.13
2023-02-14T06:12:56.173Z,1031.18
2023-02-14T06:13:56.110Z,1031.20
2023-02-14T06:14:56.107Z,1031.15
2023-02-14T06:15:56.103Z,1031.20
2023-02-14T06:16:56.186Z,1031.20
2023-02-14T06:17:56.137Z,1031.19
2023-02-14T06:18:56.095Z,1031.16
2023-02-14T06:19:56.072Z,1031.18
2023-02-14T06:20:56.045Z,1031.20
2023-02-14T06:21:56.011Z,1031.18
2023-02-14T06:22:56.065Z,1031.20
2023-02-14T06:23:56.005Z,1031.28
2023-02-14T06:24:56.001Z,1031.27
2023-02-14T06:25:56.029Z,1031.27
2023-02-14T06:26:55.963Z,1031.29
2023-02-14T06:27:55.954Z,1031.31
2023-02-14T06:28:55.944Z,1031.29
2023-02-14T06:29:55.984Z,1031.31
2023-02-14T06:30:55.984Z,1031.34
2023-02-14T06:31:55.957Z,1031.41
2023-02-14T06:32:55.864Z,1031.37
2023-02-14T06:33:55.884Z,1031.40
2023-02-14T06:34:55.831Z,1031.40
2023-02-14T06:35:55.828Z,1031.41
2023-02-14T06:36:55.813Z,1031.40
2023-02-14T06:37:55.801Z,1031.42
2023-02-14T06:38:55.812Z,1031.44
2023-02-14T06:39:55.763Z,1031.45
2023-02-14T06:40:55.762Z,1031.49
2023-02-14T06:41:55.750Z,1031.47
2023-02-14T06:42:55.751Z,1031.47
2023-02-14T06:43:55.743Z,1031.46
2023-02-14T06:44:55.708Z,1031.47
2023-02-14T06:45:55.719Z,1031.49
2023-02-14T06:46:55.688Z,1031.53
2023-02-14T06:47:55.664Z,1031.53
2023-02-14T06:48:55.679Z,1031.50
2023-02-14T06:49:55.644Z,1031.49
2023-02-14T06:50:55.621Z,1031.54
2023-02-14T06:51:55.611Z,1031.51
2023-02-14T06:52:55.606Z,1031.49
2023-02-14T06:53:55.613Z,1031.51
2023-02-14T06:54:55.586Z,1031.49
2023-02-14T06:55:55.564Z,1031.51
2023-02-14T06:56:55.561Z,1031.47
2023-02-14T06:57:55.536Z,1031.47
2023-02-14T06:58:55.543Z,1031.49
2023-02-14T06:59:55.537Z,1031.51
2023-02-14T07:00:55.502Z,1031.49
2023-02-14T07:01:55.477Z,1031.50
2023-02-14T07:02:55.569Z,1031.53
2023-02-14T07:03:55.479Z,1031.49
2023-02-14T07:04:55.458Z,1031.51
2023-02-14T07:05:55.434Z,1031.48
2023-02-14T07:06:55.422Z,1031.44
2023-02-14T07:07:55.413Z,1031.48
2023-02-14T07:08:55.417Z,1031.48
2023-02-14T07:09:55.377Z,1031.52
2023-02-14T07:10:55.364Z,1031.49
2023-02-14T07:11:55.400Z,1031.52
2023-02-14T07:12:55.339Z,1031.50
2023-02-14T07:13:55.361Z,1031.47
2023-02-14T07:14:55.334Z,1031.52
2023-02-14T07:15:55.377Z,1031.51
2023-02-14T07:16:55.317Z,1031.50
2023-02-14T07:17:55.267Z,1031.54
2023-02-14T07:18:55.273Z,1031.54
2023-02-14T07:19:55.271Z,1031.50
2023-02-14T07:20:55.236Z,1031.49
2023-02-14T07:21:55.223Z,1031.54
2023-02-14T07:22:55.227Z,1031.48
2023-02-14T07:23:55.221Z,1031.40
2023-02-14T07:24:55.198Z,1031.41
2023-02-14T07:25:55.153Z,1031.38
2023-02-14T07:26:55.157Z,1031.44
2023-02-14T07:27:55.134Z,1031.46
2023-02-14T07:28:55.166Z,1031.43
2023-02-14T07:29:55.164Z,1031.44
2023-02-14T07:30:55.208Z,1031.40
2023-02-14T07:31:55.192Z,1031.45
2023-02-14T07:32:55.068Z,1031.41
2023-02-14T07:33:55.080Z,1031.41
2023-02-14T07:34:55.044Z,1031.45
2023-02-14T07:35:55.043Z,1031.42
2023-02-14T07:36:55.034Z,1031.41
2023-02-14T07:37:55.005Z,1031.47
2023-02-14T07:38:55.038Z,1031.37
2023-02-14T07:39:54.977Z,1031.38
2023-02-14T07:40:54.972Z,1031.41
2023-02-14T07:41:54.970Z,1031.38
2023-02-14T07:42:54.960Z,1031.39
2023-02-14T07:43:54.938Z,1031.39
2023-02-14T07:44:54.924Z,1031.40
2023-02-14T07:45:54.898Z,1031.43
2023-02-14T07:46:54.919Z,1031.41
2023-02-14T07:47:54.880Z,1031.39
2023-02-14T07:48:54.864Z,1031.46
2023-02-14T07:49:54.871Z,1031.39
2023-02-14T07:50:54.857Z,1031.40
2023-02-14T07:51:54.811Z,1031.45
2023-02-14T07:52:54.804Z,1031.41
2023-02-14T07:53:54.789Z,1031.37
2023-02-14T07:54:54.799Z,1031.44
2023-02-14T07:56:02.806Z,1031.41
2023-02-14T07:56:57.435Z,1031.41
2023-02-14T07:57:55.450Z,1031.43
2023-02-14T07:58:54.747Z,1031.45
2023-02-14T07:59:54.737Z,1031.44
2023-02-14T08:00:54.734Z,1031.38
2023-02-14T08:01:54.688Z,1031.45
2023-02-14T08:02:54.681Z,1031.47
2023-02-14T08:03:54.688Z,1031.45
2023-02-14T08:04:54.680Z,1031.47
2023-02-14T08:05:54.653Z,1031.49
2023-02-14T08:06:54.651Z,1031.50
2023-02-14T08:07:54.613Z,1031.42
2023-02-14T08:08:54.607Z,1031.48
2023-02-14T08:09:54.624Z,1031.50
2023-02-14T08:10:54.592Z,1031.54
2023-02-14T08:11:54.555Z,1031.50
2023-02-14T08:12:54.553Z,1031.49
2023-02-14T08:13:54.534Z,1031.49
2023-02-14T08:14:54.551Z,1031.44
2023-02-14T08:15:54.585Z,1031.48
2023-02-14T08:16:54.503Z,1031.50
2023-02-14T08:17:54.475Z,1031.45
2023-02-14T08:18:54.464Z,1031.43
2023-02-14T08:19:54.456Z,1031.40
2023-02-14T08:20:54.437Z,1031.39
2023-02-14T08:21:54.423Z,1031.38
2023-02-14T08:22:54.411Z,1031.42
2023-02-14T08:23:54.396Z,1031.45
2023-02-14T08:24:54.412Z,1031.41
2023-02-14T08:25:54.362Z,1031.45
2023-02-14T08:26:54.367Z,1031.46
2023-02-14T08:27:54.334Z,1031.43
2023-02-14T08:28:54.322Z,1031.45
2023-02-14T08:29:54.397Z,1031.46
2023-02-14T08:30:54.449Z,1031.47
2023-02-14T08:31:54.423Z,1031.47
2023-02-14T08:32:54.298Z,1031.50
2023-02-14T08:33:54.261Z,1031.48
2023-02-14T08:34:54.272Z,1031.50
2023-02-14T08:35:54.241Z,1031.49
2023-02-14T08:36:54.224Z,1031.49
2023-02-14T08:37:54.202Z,1031.48
2023-02-14T08:38:54.210Z,1031.52
2023-02-14T08:39:54.170Z,1031.51
2023-02-14T08:40:54.182Z,1031.50
2023-02-14T08:41:54.171Z,1031.50
2023-02-14T08:42:54.173Z,1031.52
2023-02-14T08:43:54.134Z,1031.52
2023-02-14T08:44:54.143Z,1031.57
2023-02-14T08:45:54.121Z,1031.58
2023-02-14T08:46:54.171Z,1031.54
2023-02-14T08:47:54.104Z,1031.49
2023-02-14T08:48:54.080Z,1031.45
2023-02-14T08:49:54.066Z,1031.46
2023-02-14T08:50:54.063Z,1031.49
2023-02-14T08:51:54.035Z,1031.51
2023-02-14T08:52:54.012Z,1031.48
2023-02-14T08:53:53.991Z,1031.44
2023-02-14T08:54:53.999Z,1031.47
2023-02-14T08:55:53.983Z,1031.50
2023-02-14T08:56:53.980Z,1031.52
2023-02-14T08:57:53.986Z,1031.50
2023-02-14T08:58:53.962Z,1031.51
2023-02-14T08:59:53.934Z,1031.56
2023-02-14T09:00:54.005Z,1031.52
2023-02-14T09:01:53.923Z,1031.57
2023-02-14T09:02:53.896Z,1031.55
2023-02-14T09:03:53.893Z,1031.56
2023-02-14T09:04:53.846Z,1031.54
2023-02-14T09:05:53.854Z,1031.48
2023-02-14T09:06:53.849Z,1031.50
2023-02-14T09:07:53.864Z,1031.46
2023-02-14T09:08:53.794Z,1031.49
2023-02-14T09:09:53.816Z,1031.45
2023-02-14T09:10:53.820Z,1031.44
2023-02-14T09:11:53.765Z,1031.40
2023-02-14T09:12:53.757Z,1031.37
2023-02-14T09:13:53.737Z,1031.42
2023-02-14T09:14:53.857Z,1031.41
2023-02-14T09:15:53.722Z,1031.39
2023-02-14T09:16:53.744Z,1031.38
2023-02-14T09:17:53.684Z,1031.35
2023-02-14T09:18:53.693Z,1031.38
2023-02-14T09:19:53.744Z,1031.33
2023-02-14T09:20:53.654Z,1031.30
2023-02-14T09:21:53.637Z,1031.30
2023-02-14T09:22:53.615Z,1031.28
2023-02-14T09:23:53.586Z,1031.28
2023-02-14T09:24:53.592Z,1031.26
2023-02-14T09:25:53.579Z,1031.25
2023-02-14T09:26:53.590Z,1031.23
2023-02-14T09:27:53.555Z,1031.21
2023-02-14T09:28:53.537Z,1031.25
2023-02-14T09:29:53.543Z,1031.24
2023-02-14T09:30:54.613Z,1031.19
2023-02-14T09:31:53.576Z,1031.18
2023-02-14T09:32:53.508Z,1031.15
2023-02-14T09:33:53.457Z,1031.14
2023-02-14T09:34:53.448Z,1031.18
2023-02-14T09:35:53.471Z,1031.16
2023-02-14T09:36:53.429Z,1031.15
2023-02-14T09:37:53.405Z,1031.08
2023-02-14T09:38:53.403Z,1031.19
2023-02-14T09:39:53.385Z,1031.20
2023-02-14T09:40:53.386Z,1031.18
2023-02-14T09:41:53.356Z,1031.12
2023-02-14T09:42:53.344Z,1031.12
2023-02-14T09:43:53.335Z,1031.16
2023-02-14T09:44:53.326Z,1031.16
2023-02-14T09:45:53.375Z,1031.12
2023-02-14T09:46:53.295Z,1031.11
2023-02-14T09:47:53.285Z,1031.13
2023-02-14T09:48:53.339Z,1031.10
2023-02-14T09:49:53.344Z,1031.07
2023-02-14T09:50:53.257Z,1031.09
2023-02-14T09:51:53.226Z,1031.07
2023-02-14T09:52:53.225Z,1031.05
2023-02-14T09:53:53.207Z,1031.05
2023-02-14T09:54:53.194Z,1031.05
2023-02-14T09:55:53.196Z,1031.04
2023-02-14T09:56:53.202Z,1031.04
2023-02-14T09:57:53.267Z,1031.03
2023-02-14T09:58:53.139Z,1031.02
2023-02-14T09:59:53.124Z,1031.05
2023-02-14T10:00:53.160Z,1031.05
2023-02-14T10:01:53.209Z,1031.04
2023-02-14T10:02:53.081Z,1031.03
2023-02-14T10:03:53.074Z,1030.97
2023-02-14T10:04:53.053Z,1031.04
2023-02-14T10:05:53.063Z,1031.01
2023-02-14T10:06:53.038Z,1031.04
2023-02-14T10:07:53.040Z,1031.02
2023-02-14T10:08:53.023Z,1031.00
2023-02-14T10:09:53.006Z,1030.99
2023-02-14T10:10:52.987Z,1030.99
2023-02-14T10:11:52.972Z,1030.96
2023-02-14T10:12:52.954Z,1030.96
2023-02-14T10:13:52.955Z,1031.00
2023-02-14T10:14:52.920Z,1031.00
2023-02-14T10:15:52.921Z,1030.97
2023-02-14T10:16:52.948Z,1030.97
2023-02-14T10:17:52.885Z,1030.94
2023-02-14T10:18:52.872Z,1031.01
2023-02-14T10:19:52.864Z,1030.98
2023-02-14T10:20:52.840Z,1030.99
2023-02-14T10:21:52.850Z,1031.02
2023-02-14T10:22:52.820Z,1030.99
2023-02-14T10:23:52.816Z,1030.99
2023-02-14T10:24:52.791Z,1031.00
2023-02-14T10:25:52.769Z,1030.93
2023-02-14T10:26:52.782Z,1030.92
2023-02-14T10:27:52.760Z,1030.95
2023-02-14T10:28:52.753Z,1030.94
2023-02-14T10:29:52.738Z,1030.92
2023-02-14T10:30:52.779Z,1030.93
2023-02-14T10:31:52.755Z,1030.93
2023-02-14T10:32:52.688Z,1030.89
2023-02-14T10:33:52.661Z,1030.90
2023-02-14T10:34:52.661Z,1030.88
2023-02-14T10:35:52.656Z,1030.89
2023-02-14T10:36:52.641Z,1030.84
2023-02-14T10:37:52.639Z,1030.91
2023-02-14T10:38:52.605Z,1030.83
2023-02-14T10:39:52.606Z,1030.85
2023-02-14T10:40:52.585Z,1030.84
2023-02-14T10:41:52.586Z,1030.83
2023-02-14T10:42:52.554Z,1030.83
2023-02-14T10:43:52.533Z,1030.82
2023-02-14T10:44:52.530Z,1030.82
2023-02-14T10:45:52.564Z,1030.72
2023-02-14T10:46:52.512Z,1030.75
2023-02-14T10:47:52.501Z,1030.70
2023-02-14T10:48:52.474Z,1030.73
2023-02-14T10:49:52.484Z,1030.70
2023-02-14T10:50:52.460Z,1030.69
2023-02-14T10:51:52.487Z,1030.70
2023-02-14T10:52:52.431Z,1030.72
2023-02-14T10:53:52.424Z,1030.66
2023-02-14T10:54:52.407Z,1030.69
2023-02-14T10:55:52.387Z,1030.64
2023-02-14T10:56:52.376Z,1030.67
2023-02-14T10:57:52.376Z,1030.69
2023-02-14T10:58:52.347Z,1030.68
2023-02-14T10:59:52.349Z,1030.66
2023-02-14T11:00:52.360Z,1030.60
2023-02-14T11:01:52.321Z,1030.59
2023-02-14T11:02:52.312Z,1030.56
2023-02-14T11:03:52.309Z,1030.54
2023-02-14T11:04:52.278Z,1030.55
2023-02-14T11:05:52.272Z,1030.51
2023-02-14T11:06:52.256Z,1030.48
2023-02-14T11:07:52.279Z,1030.47
2023-02-14T11:08:52.220Z,1030.49
2023-02-14T11:09:52.210Z,1030.54
2023-02-14T11:10:52.208Z,1030.48
2023-02-14T11:11:52.182Z,1030.45
2023-02-14T11:12:52.374Z,1030.41
2023-02-14T11:13:52.170Z,1030.48
2023-02-14T11:14:52.140Z,1030.45
2023-02-14T11:15:52.210Z,1030.47
2023-02-14T11:16:52.167Z,1030.41
2023-02-14T11:17:52.127Z,1030.43
2023-02-14T11:18:52.084Z,1030.44
2023-02-14T11:19:52.090Z,1030.39
2023-02-14T11:20:52.054Z,1030.40
2023-02-14T11:21:52.058Z,1030.34
2023-02-14T11:22:52.053Z,1030.30
2023-02-14T11:23:52.021Z,1030.15
2023-02-14T11:24:52.005Z,1030.12
2023-02-14T11:25:52.002Z,1030.11
2023-02-14T11:26:51.981Z,1030.05
2023-02-14T11:27:51.990Z,1030.04
2023-02-14T11:28:51.946Z,1030.03
2023-02-14T11:29:51.971Z,1029.97
2023-02-14T11:30:52.034Z,1029.99
2023-02-14T11:31:52.028Z,1029.97
2023-02-14T11:32:51.921Z,1029.97
2023-02-14T11:33:51.896Z,1029.90
2023-02-14T11:34:51.870Z,1029.85
2023-02-14T11:35:51.869Z,1029.85
2023-02-14T11:36:51.834Z,1029.79
2023-02-14T11:37:51.871Z,1029.76
2023-02-14T11:38:51.816Z,1029.75
2023-02-14T11:39:51.804Z,1029.76
2023-02-14T11:40:51.805Z,1029.61
2023-02-14T11:41:51.785Z,1029.61
2023-02-14T11:42:54.777Z,1029.62
2023-02-14T11:43:52.755Z,1029.59
2023-02-14T11:44:51.735Z,1029.58
2023-02-14T11:45:51.794Z,1029.55
2023-02-14T11:46:53.797Z,1029.54
2023-02-14T11:47:51.718Z,1029.48
2023-02-14T11:48:51.695Z,1029.51
2023-02-14T11:49:51.667Z,1029.50
2023-02-14T11:50:51.659Z,1029.46
2023-02-14T11:51:51.644Z,1029.44
2023-02-14T11:52:51.660Z,1029.43
2023-02-14T11:53:51.621Z,1029.47
2023-02-14T11:54:51.609Z,1029.39
2023-02-14T11:55:51.646Z,1029.38
2023-02-14T11:56:51.583Z,1029.33
2023-02-14T11:57:51.673Z,1029.27
2023-02-14T11:58:51.571Z,1029.28
2023-02-14T11:59:51.555Z,1029.26
2023-02-14T12:00:51.532Z,1029.20
2023-02-14T12:01:51.522Z,1029.16
2023-02-14T12:02:51.601Z,1029.17
2023-02-14T12:03:51.556Z,1029.16
2023-02-14T12:04:51.475Z,1029.11